Time;durP1;ratioP1;P1;durP2;ratioP2;P2;SDS_P1;SDS_P2;PMS_P1;PMS_P2;Temp;Humidity;BMP_temperature;BMP_pressure;BME280_temperature;BME280_humidity;BME280_pressure;Samples;Min_cycle;Max_cycle;Signal;HPM_P1;HPM_P2
2023/12/11 00:00:43;;;;;;;1.08;0.40;;;11.60;99.90;;;;;;5034810;28;20399;-44
2023/12/11 00:03:09;;;;;;;0.98;0.45;;;11.60;99.90;;;;;;5035217;28;20033;-45
2023/12/11 00:05:38;;;;;;;0.95;0.40;;;11.60;99.90;;;;;;5035919;28;20422;-45
2023/12/11 00:08:04;;;;;;;1.05;0.40;;;11.60;99.90;;;;;;5036072;28;20032;-45
2023/12/11 00:10:29;;;;;;;1.40;0.45;;;11.60;99.90;;;;;;5036004;28;20029;-45
2023/12/11 00:12:55;;;;;;;1.13;0.50;;;11.60;99.90;;;;;;5036150;28;20029;-45
2023/12/11 00:15:23;;;;;;;2.70;0.77;;;11.60;99.90;;;;;;5034579;28;20479;-45
2023/12/11 00:17:49;;;;;;;0.80;0.50;;;11.60;99.90;;;;;;5034408;28;20488;-45
2023/12/11 00:20:15;;;;;;;0.70;0.50;;;11.60;99.90;;;;;;5034748;28;20153;-44
2023/12/11 00:22:43;;;;;;;0.90;0.45;;;11.60;99.90;;;;;;5034324;28;20046;-45
2023/12/11 00:25:10;;;;;;;1.65;0.70;;;11.60;99.90;;;;;;5035077;28;20022;-45
2023/12/11 00:27:36;;;;;;;0.93;0.50;;;11.60;99.90;;;;;;5034436;28;20024;-45
2023/12/11 00:30:02;;;;;;;1.02;0.50;;;11.60;99.90;;;;;;5034267;28;20446;-45
2023/12/11 00:32:27;;;;;;;0.85;0.38;;;11.60;99.90;;;;;;5035337;28;20105;-45
2023/12/11 00:34:53;;;;;;;1.05;0.57;;;11.60;99.90;;;;;;5034842;28;20021;-45
2023/12/11 00:37:18;;;;;;;1.00;0.50;;;11.60;99.90;;;;;;5034429;28;20113;-46
2023/12/11 00:39:44;;;;;;;0.77;0.40;;;11.60;99.90;;;;;;5035491;28;20025;-46
2023/12/11 00:42:10;;;;;;;0.93;0.40;;;11.60;99.90;;;;;;5034931;28;20021;-45
2023/12/11 00:44:38;;;;;;;0.93;0.45;;;11.60;99.90;;;;;;5035216;28;20037;-45
2023/12/11 00:47:04;;;;;;;0.93;0.38;;;11.50;99.90;;;;;;5034023;28;20104;-44
2023/12/11 00:49:31;;;;;;;0.80;0.40;;;11.60;99.90;;;;;;5035069;28;20506;-46
2023/12/11 00:51:57;;;;;;;0.95;0.40;;;11.60;99.90;;;;;;5035321;28;20025;-45
2023/12/11 00:54:23;;;;;;;2.17;0.60;;;11.60;99.90;;;;;;5033801;28;20488;-46
2023/12/11 00:56:48;;;;;;;0.75;0.40;;;11.60;99.90;;;;;;5034216;28;20025;-46
2023/12/11 00:59:14;;;;;;;0.88;0.38;;;11.60;99.90;;;;;;5033361;28;20056;-46
2023/12/11 01:01:40;;;;;;;0.68;0.40;;;11.60;99.90;;;;;;5033898;28;20071;-45
2023/12/11 01:04:05;;;;;;;0.52;0.32;;;11.60;99.90;;;;;;5034335;28;20041;-45
2023/12/11 01:06:31;;;;;;;1.30;0.57;;;11.60;99.90;;;;;;5033835;28;20098;-45
2023/12/11 01:08:57;;;;;;;0.63;0.30;;;11.60;99.90;;;;;;5034802;28;20036;-45
2023/12/11 01:11:22;;;;;;;0.35;0.28;;;11.50;99.90;;;;;;5034331;28;20029;-45
2023/12/11 01:13:48;;;;;;;0.50;0.28;;;11.60;99.90;;;;;;5034063;28;20040;-45
2023/12/11 01:16:14;;;;;;;0.52;0.40;;;11.60;99.90;;;;;;5033419;28;20104;-46
2023/12/11 01:18:39;;;;;;;0.98;0.60;;;11.50;99.90;;;;;;5034343;28;20060;-44
2023/12/11 01:21:05;;;;;;;1.40;0.30;;;11.50;99.90;;;;;;5033892;28;20383;-45
2023/12/11 01:23:31;;;;;;;1.17;0.32;;;11.60;99.90;;;;;;5033832;28;20036;-45
2023/12/11 01:25:56;;;;;;;1.80;0.60;;;11.60;99.90;;;;;;5033780;28;20483;-46
2023/12/11 01:28:22;;;;;;;0.88;0.40;;;11.60;99.90;;;;;;5033257;28;20395;-45
2023/12/11 01:30:48;;;;;;;0.50;0.35;;;11.50;99.90;;;;;;5033174;28;20511;-44
2023/12/11 01:33:13;;;;;;;0.57;0.40;;;11.50;99.90;;;;;;5033365;28;20021;-45
2023/12/11 01:35:40;;;;;;;0.40;0.28;;;11.50;99.90;;;;;;5033008;28;20533;-45
2023/12/11 01:38:05;;;;;;;0.40;0.25;;;11.50;99.90;;;;;;5034102;28;20026;-46
2023/12/11 01:40:31;;;;;;;1.20;0.50;;;11.50;99.90;;;;;;5033779;28;20017;-45
2023/12/11 01:43:14;;;;;;;0.60;0.30;;;11.50;99.90;;;;;;5034128;28;20061;-45
2023/12/11 01:45:40;;;;;;;1.65;0.30;;;11.60;99.90;;;;;;5032988;28;20295;-44
2023/12/11 01:48:07;;;;;;;0.90;0.40;;;11.50;99.90;;;;;;5033065;28;20033;-45
2023/12/11 01:50:33;;;;;;;0.85;0.28;;;11.50;99.90;;;;;;5032776;28;20078;-46
2023/12/11 01:52:59;;;;;;;0.55;0.30;;;11.50;99.90;;;;;;5032780;28;20104;-45
2023/12/11 01:55:25;;;;;;;0.40;0.30;;;11.50;99.90;;;;;;5032789;28;20026;-45
2023/12/11 01:57:52;;;;;;;0.93;0.38;;;11.50;99.90;;;;;;5033220;28;20028;-46
2023/12/11 02:00:19;;;;;;;0.98;0.40;;;11.50;99.90;;;;;;5033161;28;20057;-44
2023/12/11 02:02:45;;;;;;;1.65;0.38;;;11.60;99.90;;;;;;5033580;28;20428;-44
2023/12/11 02:05:11;;;;;;;0.55;0.30;;;11.50;99.90;;;;;;5032526;28;20028;-45
2023/12/11 02:07:38;;;;;;;0.60;0.30;;;11.50;99.90;;;;;;5033511;28;20022;-45
2023/12/11 02:10:06;;;;;;;0.50;0.30;;;11.50;99.90;;;;;;5033189;28;20061;-45
2023/12/11 02:12:31;;;;;;;1.20;0.30;;;11.50;99.90;;;;;;5033532;28;20021;-46
2023/12/11 02:14:57;;;;;;;0.85;0.40;;;11.50;99.90;;;;;;5030912;28;20385;-42
2023/12/11 02:17:23;;;;;;;1.08;0.20;;;11.50;99.90;;;;;;5032195;28;20032;-45
2023/12/11 02:19:48;;;;;;;0.38;0.28;;;11.50;99.90;;;;;;5033131;28;20439;-45
2023/12/11 02:22:15;;;;;;;0.50;0.30;;;11.50;99.90;;;;;;5032111;28;20034;-45
2023/12/11 02:24:55;;;;;;;0.50;0.30;;;11.50;99.90;;;;;;5033233;28;20048;-45
2023/12/11 02:27:22;;;;;;;1.00;0.20;;;11.60;99.90;;;;;;5032180;28;20033;-45
2023/12/11 02:29:50;;;;;;;0.22;0.20;;;11.50;99.90;;;;;;5032045;28;20033;-45
2023/12/11 02:32:16;;;;;;;0.82;0.43;;;11.50;99.90;;;;;;5033069;28;20092;-46
2023/12/11 02:34:42;;;;;;;0.63;0.30;;;11.50;99.90;;;;;;5032914;28;20045;-45
2023/12/11 02:37:08;;;;;;;0.57;0.30;;;11.50;99.90;;;;;;5032682;28;20044;-46
2023/12/11 02:39:33;;;;;;;0.30;0.30;;;11.50;99.90;;;;;;5032441;28;20021;-44
2023/12/11 02:41:59;;;;;;;0.52;0.20;;;11.50;99.90;;;;;;5032470;28;20032;-44
2023/12/11 02:44:25;;;;;;;0.57;0.20;;;11.50;99.90;;;;;;5032427;28;20105;-46
2023/12/11 02:46:50;;;;;;;0.63;0.30;;;11.50;99.90;;;;;;5032806;28;20450;-45
2023/12/11 02:49:16;;;;;;;0.20;0.15;;;11.50;99.90;;;;;;5031872;28;20099;-45
2023/12/11 02:51:41;;;;;;;0.22;0.20;;;11.50;99.90;;;;;;5031759;28;20029;-45
2023/12/11 02:54:07;;;;;;;0.30;0.20;;;11.50;99.90;;;;;;5031723;28;20033;-46
2023/12/11 02:56:33;;;;;;;1.08;0.28;;;11.50;99.90;;;;;;5031534;28;20022;-45
2023/12/11 02:58:58;;;;;;;0.35;0.20;;;11.50;99.90;;;;;;5032282;28;20101;-45
2023/12/11 03:01:25;;;;;;;0.55;0.20;;;11.50;99.90;;;;;;5031723;28;20507;-45
2023/12/11 03:03:50;;;;;;;0.95;0.30;;;11.50;99.90;;;;;;5031786;28;20116;-46
2023/12/11 03:06:20;;;;;;;0.40;0.20;;;11.50;99.90;;;;;;5031464;28;20172;-45
2023/12/11 03:08:45;;;;;;;0.30;0.20;;;11.50;99.90;;;;;;5031915;28;20029;-45
2023/12/11 03:11:11;;;;;;;0.40;0.20;;;11.50;99.90;;;;;;5031663;28;20036;-46
2023/12/11 03:13:37;;;;;;;0.57;0.30;;;11.50;99.90;;;;;;5031751;28;20064;-46
2023/12/11 03:16:02;;;;;;;0.40;0.30;;;11.50;99.90;;;;;;5031567;28;20049;-44
2023/12/11 03:18:28;;;;;;;0.60;0.20;;;11.50;99.90;;;;;;5032372;28;20026;-45
2023/12/11 03:20:54;;;;;;;0.10;0.10;;;11.60;99.90;;;;;;5032168;28;20029;-45
2023/12/11 03:23:19;;;;;;;0.80;0.30;;;11.60;99.90;;;;;;5032191;28;20037;-45
2023/12/11 03:25:45;;;;;;;0.40;0.30;;;11.60;99.90;;;;;;5031558;28;20036;-46
2023/12/11 03:28:10;;;;;;;0.20;0.20;;;11.70;99.90;;;;;;5031659;28;20650;-46
2023/12/11 03:30:36;;;;;;;0.75;0.30;;;11.70;99.90;;;;;;5032095;28;20068;-45
2023/12/11 03:33:02;;;;;;;0.40;0.20;;;11.70;99.90;;;;;;5031396;28;20026;-44
2023/12/11 03:35:28;;;;;;;0.10;0.10;;;11.70;99.90;;;;;;5031746;28;20083;-45
2023/12/11 03:37:54;;;;;;;0.20;0.17;;;11.80;99.90;;;;;;5031925;28;20491;-45
2023/12/11 03:40:19;;;;;;;0.30;0.20;;;11.80;99.90;;;;;;5031429;28;20500;-46
2023/12/11 03:42:45;;;;;;;0.65;0.30;;;11.80;99.90;;;;;;5032579;28;20021;-45
2023/12/11 03:45:11;;;;;;;0.47;0.20;;;11.80;99.90;;;;;;5032514;28;20503;-44
2023/12/11 03:47:36;;;;;;;0.20;0.20;;;11.80;99.90;;;;;;5031554;28;20021;-44
2023/12/11 03:50:02;;;;;;;0.20;0.20;;;11.90;99.90;;;;;;5031307;28;20040;-45
2023/12/11 03:52:28;;;;;;;0.10;0.10;;;11.90;99.90;;;;;;5031391;28;20451;-45
2023/12/11 03:54:54;;;;;;;0.20;0.10;;;11.90;99.90;;;;;;5031561;28;20017;-45
2023/12/11 03:57:19;;;;;;;0.25;0.20;;;11.90;99.90;;;;;;5031603;28;20177;-45
2023/12/11 03:59:45;;;;;;;1.08;0.20;;;11.90;99.90;;;;;;5032161;28;20030;-45
2023/12/11 04:02:10;;;;;;;0.30;0.20;;;11.90;99.90;;;;;;5032273;28;20072;-44
2023/12/11 04:04:36;;;;;;;0.25;0.20;;;11.90;99.90;;;;;;5032888;28;20083;-45
2023/12/11 04:07:02;;;;;;;0.30;0.20;;;11.90;99.90;;;;;;5031395;28;20103;-45
2023/12/11 04:09:27;;;;;;;0.30;0.20;;;11.90;99.90;;;;;;5030905;28;20558;-46
2023/12/11 04:11:53;;;;;;;0.30;0.10;;;11.90;99.90;;;;;;5030759;28;20072;-45
2023/12/11 04:14:19;;;;;;;0.68;0.30;;;11.90;99.90;;;;;;5031842;28;20032;-45
2023/12/11 04:16:45;;;;;;;0.10;0.10;;;11.90;99.90;;;;;;5032198;28;20031;-45
2023/12/11 04:19:14;;;;;;;0.40;0.20;;;11.90;99.90;;;;;;5031864;28;20075;-44
2023/12/11 04:21:39;;;;;;;0.40;0.20;;;11.90;99.90;;;;;;5032192;28;20033;-45
2023/12/11 04:24:05;;;;;;;0.15;0.10;;;11.90;99.90;;;;;;5031165;28;20395;-45
2023/12/11 04:26:31;;;;;;;0.20;0.10;;;11.90;99.90;;;;;;5031521;28;20025;-45
2023/12/11 04:28:56;;;;;;;0.57;0.10;;;11.90;99.90;;;;;;5031722;28;20025;-44
2023/12/11 04:31:23;;;;;;;0.32;0.20;;;11.90;99.90;;;;;;5031494;28;20033;-44
2023/12/11 04:33:50;;;;;;;0.73;0.30;;;11.90;99.90;;;;;;5033312;28;20028;-44
2023/12/11 04:36:16;;;;;;;0.45;0.30;;;11.90;99.90;;;;;;5035451;28;20487;-45
2023/12/11 04:38:41;;;;;;;0.77;0.30;;;11.90;99.90;;;;;;5034935;28;20028;-45
2023/12/11 04:41:07;;;;;;;0.30;0.20;;;11.90;99.90;;;;;;5034935;28;20553;-44
2023/12/11 04:43:33;;;;;;;0.10;0.10;;;11.90;99.90;;;;;;5034791;28;20037;-45
2023/12/11 04:46:02;;;;;;;0.20;0.20;;;11.90;99.90;;;;;;5034721;28;20501;-44
2023/12/11 04:48:28;;;;;;;0.20;0.15;;;11.90;99.90;;;;;;5034729;28;20114;-45
2023/12/11 04:50:53;;;;;;;0.28;0.20;;;11.90;99.90;;;;;;5034843;28;20471;-45
2023/12/11 04:53:19;;;;;;;0.77;0.30;;;11.90;99.90;;;;;;5034175;28;20084;-44
2023/12/11 04:55:45;;;;;;;0.30;0.20;;;11.90;99.90;;;;;;5035048;28;20017;-45
2023/12/11 04:58:11;;;;;;;0.20;0.20;;;11.90;99.90;;;;;;5035375;28;20040;-44
2023/12/11 05:00:36;;;;;;;0.20;0.20;;;11.90;99.90;;;;;;5033934;28;20060;-45
2023/12/11 05:03:02;;;;;;;0.55;0.20;;;11.90;99.90;;;;;;5034676;28;20542;-44
2023/12/11 05:05:28;;;;;;;0.22;0.13;;;11.90;99.90;;;;;;5033685;28;20391;-44
2023/12/11 05:07:53;;;;;;;0.32;0.20;;;11.90;99.90;;;;;;5033704;28;20026;-44
2023/12/11 05:10:19;;;;;;;0.68;0.20;;;11.80;99.90;;;;;;5035443;28;20053;-46
2023/12/11 05:12:45;;;;;;;0.40;0.20;;;11.80;99.90;;;;;;5033736;28;20025;-46
2023/12/11 05:15:11;;;;;;;0.30;0.30;;;11.90;99.90;;;;;;5034043;28;20026;-45
2023/12/11 05:17:36;;;;;;;0.20;0.10;;;11.80;99.90;;;;;;5033947;28;20091;-46
2023/12/11 05:20:02;;;;;;;0.20;0.10;;;11.80;99.90;;;;;;5033975;28;20025;-45
2023/12/11 05:22:28;;;;;;;0.20;0.15;;;11.80;99.90;;;;;;5033619;28;20429;-43
2023/12/11 05:24:55;;;;;;;0.70;0.20;;;11.80;99.90;;;;;;5033864;28;20049;-44
2023/12/11 05:27:20;;;;;;;0.43;0.20;;;11.80;99.90;;;;;;5033154;28;20091;-45
2023/12/11 05:29:46;;;;;;;0.20;0.20;;;11.80;99.90;;;;;;5034484;28;20438;-46
2023/12/11 05:32:13;;;;;;;0.25;0.10;;;11.80;99.90;;;;;;5034055;28;20037;-44
2023/12/11 05:34:39;;;;;;;0.25;0.20;;;11.80;99.90;;;;;;5033928;28;20027;-44
2023/12/11 05:37:04;;;;;;;0.35;0.13;;;11.80;99.90;;;;;;5033318;28;20022;-45
2023/12/11 05:39:30;;;;;;;0.28;0.20;;;11.80;99.90;;;;;;5033983;28;20032;-45
2023/12/11 05:41:56;;;;;;;0.50;0.28;;;11.80;99.90;;;;;;5033898;28;20026;-45
2023/12/11 05:44:21;;;;;;;0.85;0.32;;;11.80;99.90;;;;;;5033551;28;20120;-46
2023/12/11 05:46:47;;;;;;;0.15;0.15;;;11.80;99.90;;;;;;5032820;28;20481;-45
2023/12/11 05:49:13;;;;;;;0.15;0.10;;;11.80;99.90;;;;;;5033092;28;20510;-45
2023/12/11 05:51:39;;;;;;;0.30;0.10;;;11.80;99.90;;;;;;5033749;28;20049;-46
2023/12/11 05:54:05;;;;;;;0.60;0.30;;;11.80;99.90;;;;;;5033084;28;20033;-45
2023/12/11 05:56:31;;;;;;;0.40;0.25;;;11.80;99.90;;;;;;5032787;28;20364;-43
2023/12/11 05:58:56;;;;;;;2.35;0.40;;;11.80;99.90;;;;;;5033540;28;20551;-45
2023/12/11 06:01:22;;;;;;;0.70;0.38;;;11.70;99.90;;;;;;5033765;28;20055;-44
2023/12/11 06:03:48;;;;;;;1.42;0.40;;;11.70;99.90;;;;;;5032933;28;20082;-43
2023/12/11 06:06:16;;;;;;;0.63;0.40;;;11.70;99.90;;;;;;5032362;28;20018;-45
2023/12/11 06:08:43;;;;;;;0.73;0.40;;;11.80;99.90;;;;;;5033680;28;20488;-44
2023/12/11 06:11:09;;;;;;;1.58;0.55;;;11.80;99.90;;;;;;5033332;28;20387;-43
2023/12/11 06:13:35;;;;;;;0.68;0.40;;;11.80;99.90;;;;;;5033725;28;20027;-45
2023/12/11 06:16:01;;;;;;;0.90;0.40;;;11.70;99.90;;;;;;5033247;28;20025;-45
2023/12/11 06:18:27;;;;;;;0.60;0.38;;;11.70;99.90;;;;;;5033606;28;20016;-44
2023/12/11 06:20:52;;;;;;;0.85;0.40;;;11.70;99.90;;;;;;5033291;28;20075;-45
2023/12/11 06:23:18;;;;;;;1.30;0.50;;;11.70;99.90;;;;;;5033265;28;20037;-45
2023/12/11 06:25:44;;;;;;;2.47;0.63;;;11.70;99.90;;;;;;5032835;28;20104;-44
2023/12/11 06:28:10;;;;;;;0.93;0.57;;;11.70;99.90;;;;;;5032042;28;20037;-43
2023/12/11 06:30:35;;;;;;;1.13;0.43;;;11.70;99.90;;;;;;5032553;28;20044;-44
2023/12/11 06:33:01;;;;;;;0.60;0.32;;;11.70;99.90;;;;;;5032321;28;20109;-43
2023/12/11 06:35:27;;;;;;;1.60;0.47;;;11.70;99.90;;;;;;5032903;28;20025;-44
2023/12/11 06:37:52;;;;;;;1.65;0.63;;;11.70;99.90;;;;;;5032764;28;20044;-43
2023/12/11 06:40:18;;;;;;;0.68;0.30;;;11.70;99.90;;;;;;5033484;28;20486;-45
2023/12/11 06:42:43;;;;;;;0.85;0.28;;;11.70;99.90;;;;;;5032178;28;20072;-44
2023/12/11 06:45:10;;;;;;;0.60;0.40;;;11.70;99.90;;;;;;5032426;28;20155;-44
2023/12/11 06:47:36;;;;;;;0.52;0.40;;;11.70;99.90;;;;;;5031954;28;20030;-43
2023/12/11 06:50:03;;;;;;;1.02;0.50;;;11.70;99.90;;;;;;5031787;28;20036;-45
2023/12/11 06:52:28;;;;;;;0.95;0.50;;;11.70;99.90;;;;;;5032584;28;20028;-44
2023/12/11 06:54:54;;;;;;;0.43;0.22;;;11.70;99.90;;;;;;5032677;28;20029;-43
2023/12/11 06:57:21;;;;;;;0.98;0.60;;;11.70;99.90;;;;;;5030967;28;20025;-44
2023/12/11 06:59:46;;;;;;;1.02;0.50;;;11.70;99.90;;;;;;5031519;28;20533;-44
2023/12/11 07:02:12;;;;;;;0.68;0.30;;;11.70;99.90;;;;;;5031820;28;20064;-44
2023/12/11 07:04:41;;;;;;;1.30;0.60;;;11.70;99.90;;;;;;5031817;28;20387;-44
2023/12/11 07:07:07;;;;;;;1.08;0.47;;;11.70;99.90;;;;;;5031863;28;20387;-42
2023/12/11 07:09:32;;;;;;;1.15;0.30;;;11.60;99.90;;;;;;5032666;28;20021;-45
2023/12/11 07:11:58;;;;;;;0.85;0.40;;;11.60;99.90;;;;;;5032351;28;20294;-43
2023/12/11 07:14:24;;;;;;;0.40;0.30;;;11.60;99.90;;;;;;5032098;28;20044;-44
2023/12/11 07:16:50;;;;;;;1.58;0.50;;;11.70;99.90;;;;;;5031462;28;20072;-45
2023/12/11 07:19:16;;;;;;;1.02;0.50;;;11.60;99.90;;;;;;5031310;28;20024;-45
2023/12/11 07:21:43;;;;;;;0.55;0.40;;;11.60;99.90;;;;;;5031742;28;20017;-44
2023/12/11 07:24:09;;;;;;;0.90;0.50;;;11.60;99.90;;;;;;5032316;28;20029;-45
2023/12/11 07:26:35;;;;;;;0.65;0.43;;;11.60;99.90;;;;;;5031812;28;20246;-44
2023/12/11 07:29:00;;;;;;;0.85;0.40;;;11.60;99.90;;;;;;5032250;28;20117;-45
2023/12/11 07:31:26;;;;;;;0.95;0.50;;;11.60;99.90;;;;;;5031845;28;20026;-41
2023/12/11 07:33:53;;;;;;;1.23;0.43;;;11.60;99.90;;;;;;5031774;28;20044;-45
2023/12/11 07:36:19;;;;;;;1.08;0.38;;;11.60;99.90;;;;;;5031706;28;20155;-45
2023/12/11 07:38:45;;;;;;;0.30;0.20;;;11.60;99.90;;;;;;5031409;28;20041;-44
2023/12/11 07:41:11;;;;;;;0.70;0.30;;;11.60;99.90;;;;;;5031169;28;20034;-42
2023/12/11 07:43:37;;;;;;;0.82;0.30;;;11.60;99.90;;;;;;5032215;28;20082;-45
2023/12/11 07:46:03;;;;;;;0.73;0.35;;;11.60;99.90;;;;;;5031898;28;20108;-44
2023/12/11 07:48:28;;;;;;;1.25;0.32;;;11.60;99.90;;;;;;5032121;28;20032;-45
2023/12/11 07:50:54;;;;;;;0.93;0.35;;;11.60;99.90;;;;;;5032172;28;20429;-45
2023/12/11 07:53:20;;;;;;;1.98;0.40;;;11.60;99.90;;;;;;5031910;28;20602;-45
2023/12/11 07:55:46;;;;;;;0.47;0.25;;;11.60;99.90;;;;;;5031682;28;20034;-46
2023/12/11 07:58:13;;;;;;;1.20;0.30;;;11.70;99.90;;;;;;5031857;28;20504;-46
2023/12/11 08:00:39;;;;;;;0.35;0.30;;;11.70;99.90;;;;;;5030928;28;20026;-44
2023/12/11 08:03:06;;;;;;;1.35;0.30;;;11.70;99.90;;;;;;5031443;28;20097;-46
2023/12/11 08:05:31;;;;;;;1.38;0.40;;;11.70;99.90;;;;;;5031578;28;20037;-44
2023/12/11 08:07:57;;;;;;;1.45;0.47;;;11.70;99.90;;;;;;5033141;28;20030;-46
2023/12/11 08:10:23;;;;;;;0.68;0.30;;;11.80;99.90;;;;;;5035808;28;20021;-45
2023/12/11 08:12:53;;;;;;;0.55;0.40;;;11.80;99.90;;;;;;5035284;28;20025;-44
2023/12/11 08:15:19;;;;;;;1.20;0.40;;;11.80;99.90;;;;;;5035493;28;20072;-44
2023/12/11 08:17:44;;;;;;;1.15;0.47;;;11.90;99.90;;;;;;5036590;28;20017;-45
2023/12/11 08:20:11;;;;;;;1.10;0.52;;;11.90;99.90;;;;;;5035309;28;20059;-45
2023/12/11 08:22:36;;;;;;;0.50;0.40;;;12.00;99.90;;;;;;5035394;28;20529;-45
2023/12/11 08:25:02;;;;;;;0.80;0.40;;;12.00;99.90;;;;;;5035588;28;20116;-45
2023/12/11 08:27:27;;;;;;;0.57;0.30;;;12.00;99.90;;;;;;5035252;28;20029;-45
2023/12/11 08:29:53;;;;;;;0.60;0.40;;;12.10;99.90;;;;;;5034889;28;20025;-44
2023/12/11 08:32:19;;;;;;;1.08;0.40;;;12.10;99.90;;;;;;5035436;28;20395;-45
2023/12/11 08:34:44;;;;;;;3.60;0.50;;;12.10;99.90;;;;;;5035340;28;20025;-45
2023/12/11 08:37:10;;;;;;;1.73;0.90;;;12.20;99.90;;;;;;5034763;28;20030;-45
2023/12/11 08:39:36;;;;;;;1.48;0.80;;;12.20;99.90;;;;;;5035257;28;20060;-45
2023/12/11 08:42:01;;;;;;;2.42;0.80;;;12.20;99.90;;;;;;5035268;28;20017;-44
2023/12/11 08:44:27;;;;;;;1.00;0.73;;;12.30;99.90;;;;;;5035152;28;20383;-45
2023/12/11 08:46:53;;;;;;;1.80;0.90;;;12.30;99.90;;;;;;5035205;28;20367;-43
2023/12/11 08:49:18;;;;;;;1.85;0.80;;;12.30;99.90;;;;;;5035210;28;20033;-42
2023/12/11 08:51:44;;;;;;;1.05;0.70;;;12.40;99.90;;;;;;5035263;28;20116;-44
2023/12/11 08:54:10;;;;;;;3.28;1.00;;;12.40;99.90;;;;;;5035626;28;20112;-45
2023/12/11 08:56:35;;;;;;;2.22;0.80;;;12.50;99.90;;;;;;5034321;28;20033;-44
2023/12/11 08:59:01;;;;;;;1.40;0.80;;;12.50;99.90;;;;;;5034790;28;20018;-44
2023/12/11 09:01:28;;;;;;;2.28;1.05;;;12.50;99.90;;;;;;5033947;28;20076;-45
2023/12/11 09:03:53;;;;;;;2.08;0.80;;;12.60;99.90;;;;;;5033707;28;20030;-46
2023/12/11 09:06:19;;;;;;;1.52;0.80;;;12.60;99.90;;;;;;5033367;28;20053;-46
2023/12/11 09:08:45;;;;;;;4.22;0.95;;;12.60;99.90;;;;;;5033255;28;20550;-46
2023/12/11 09:11:10;;;;;;;3.28;1.30;;;12.70;99.90;;;;;;5033484;28;20553;-46
2023/12/11 09:13:36;;;;;;;3.67;1.27;;;12.80;99.90;;;;;;5033478;28;20068;-45
2023/12/11 09:16:02;;;;;;;3.03;1.58;;;12.80;99.90;;;;;;5034257;28;20025;-46
2023/12/11 09:18:29;;;;;;;1.98;1.13;;;12.90;99.90;;;;;;5033224;28;20071;-46
2023/12/11 09:20:55;;;;;;;2.88;1.23;;;12.90;99.90;;;;;;5034093;28;20427;-45
2023/12/11 09:23:20;;;;;;;2.08;1.10;;;13.00;99.90;;;;;;5034569;28;20052;-45
2023/12/11 09:25:46;;;;;;;3.63;1.10;;;13.00;99.90;;;;;;5033489;28;20026;-45
2023/12/11 09:28:12;;;;;;;2.80;1.20;;;13.10;99.90;;;;;;5034404;28;20033;-46
2023/12/11 09:30:37;;;;;;;1.98;1.00;;;13.10;99.90;;;;;;5034458;28;20038;-46
2023/12/11 09:33:03;;;;;;;3.03;1.30;;;13.10;99.90;;;;;;5034131;28;20388;-46
2023/12/11 09:35:29;;;;;;;1.63;1.00;;;13.20;99.90;;;;;;5033308;28;20025;-46
2023/12/11 09:37:54;;;;;;;2.75;1.20;;;13.30;99.90;;;;;;5034347;28;20006;-45
2023/12/11 09:40:20;;;;;;;1.80;0.98;;;13.30;99.90;;;;;;5033906;28;20053;-44
2023/12/11 09:42:47;;;;;;;1.60;1.00;;;13.30;99.90;;;;;;5034392;28;20557;-45
2023/12/11 09:45:18;;;;;;;1.80;1.30;;;13.40;99.90;;;;;;5034301;28;20026;-46
2023/12/11 09:47:54;;;;;;;2.03;1.00;;;13.50;99.90;;;;;;5033505;28;20510;-47
2023/12/11 09:50:20;;;;;;;2.03;1.05;;;13.50;99.90;;;;;;5032728;28;20582;-46
2023/12/11 09:52:46;;;;;;;1.95;1.00;;;13.50;99.90;;;;;;5033344;28;20109;-46
2023/12/11 09:55:12;;;;;;;1.50;1.10;;;13.60;99.90;;;;;;5034164;28;20029;-46
2023/12/11 09:57:40;;;;;;;1.48;1.00;;;13.60;99.90;;;;;;5032568;28;20029;-46
2023/12/11 10:00:09;;;;;;;1.90;0.98;;;13.70;99.90;;;;;;5032911;28;20018;-46
2023/12/11 10:02:37;;;;;;;2.42;1.00;;;13.70;99.90;;;;;;5032923;28;20108;-46
2023/12/11 10:05:08;;;;;;;1.42;1.00;;;13.80;99.90;;;;;;5033475;28;20506;-46
2023/12/11 10:07:40;;;;;;;0.98;0.70;;;13.80;99.90;;;;;;5033629;28;20395;-46
2023/12/11 10:10:21;;;;;;;1.67;1.00;;;13.90;99.90;;;;;;5033924;28;20026;-46
2023/12/11 10:12:47;;;;;;;1.38;1.00;;;13.90;99.90;;;;;;5033085;28;20026;-46
2023/12/11 10:15:19;;;;;;;3.17;0.93;;;13.90;99.90;;;;;;5032501;28;20032;-45
2023/12/11 10:17:45;;;;;;;1.30;0.90;;;14.00;99.90;;;;;;5032911;28;20049;-46
2023/12/11 10:20:17;;;;;;;1.73;0.88;;;14.00;99.90;;;;;;5033326;28;20063;-45
2023/12/11 10:22:42;;;;;;;2.63;0.95;;;14.10;99.90;;;;;;5032864;28;20033;-45
2023/12/11 10:25:08;;;;;;;1.05;0.80;;;14.20;99.90;;;;;;5033505;28;20491;-46
2023/12/11 10:27:34;;;;;;;1.23;0.70;;;14.30;99.90;;;;;;5032089;28;20108;-46
2023/12/11 10:30:13;;;;;;;1.48;0.90;;;14.40;99.90;;;;;;5032428;28;20033;-45
2023/12/11 10:32:39;;;;;;;1.02;0.77;;;14.40;99.90;;;;;;5032208;28;20028;-45
2023/12/11 10:35:06;;;;;;;1.20;0.90;;;14.50;99.90;;;;;;5032935;28;20113;-45
2023/12/11 10:37:36;;;;;;;1.13;0.70;;;14.60;99.90;;;;;;5034189;28;20029;-45
2023/12/11 10:40:03;;;;;;;1.08;0.80;;;14.70;99.90;;;;;;5033155;28;20021;-46
2023/12/11 10:42:29;;;;;;;1.80;0.90;;;14.80;99.90;;;;;;5033233;28;20025;-46
2023/12/11 10:44:56;;;;;;;1.00;0.70;;;14.90;99.90;;;;;;5032845;28;20108;-45
2023/12/11 10:47:22;;;;;;;1.25;0.80;;;14.90;99.90;;;;;;5031729;28;20434;-46
2023/12/11 10:49:49;;;;;;;0.77;0.65;;;15.00;99.90;;;;;;5032806;28;20526;-46
2023/12/11 10:52:16;;;;;;;1.40;0.65;;;15.00;99.90;;;;;;5032969;28;20484;-45
2023/12/11 10:54:41;;;;;;;2.53;0.70;;;15.10;99.90;;;;;;5032762;28;20030;-46
2023/12/11 10:57:12;;;;;;;2.05;0.90;;;15.10;99.90;;;;;;5032068;28;20391;-45
2023/12/11 10:59:38;;;;;;;1.05;0.70;;;15.10;99.90;;;;;;5032299;28;20024;-44
2023/12/11 11:02:07;;;;;;;1.02;0.68;;;15.20;99.90;;;;;;5032967;28;20033;-44
2023/12/11 11:04:39;;;;;;;0.60;0.50;;;15.10;99.90;;;;;;5032333;28;20028;-44
2023/12/11 11:07:31;;;;;;;1.38;0.68;;;15.20;99.80;;;;;;5032381;28;20053;-44
2023/12/11 11:10:04;;;;;;;1.33;0.80;;;15.20;99.80;;;;;;5031668;28;20033;-43
2023/12/11 11:12:41;;;;;;;2.00;0.75;;;15.30;99.70;;;;;;5031778;28;20111;-45
2023/12/11 11:15:09;;;;;;;0.93;0.68;;;15.30;99.60;;;;;;5032621;28;20108;-45
2023/12/11 11:18:00;;;;;;;1.00;0.60;;;15.40;99.60;;;;;;5031771;28;20030;-48
2023/12/11 11:20:27;;;;;;;0.75;0.65;;;15.50;99.50;;;;;;5032226;28;20025;-45
2023/12/11 11:23:17;;;;;;;0.85;0.60;;;15.40;99.40;;;;;;5032800;28;20087;-45
2023/12/11 11:25:50;;;;;;;1.10;0.57;;;15.50;99.30;;;;;;5032275;28;20431;-45
2023/12/11 11:28:35;;;;;;;1.17;0.70;;;15.50;99.30;;;;;;5033079;28;20025;-44
2023/12/11 11:31:01;;;;;;;1.98;0.70;;;15.60;99.20;;;;;;5032901;28;20033;-42
2023/12/11 11:33:47;;;;;;;1.55;0.60;;;15.60;99.20;;;;;;5031653;28;20025;-45
2023/12/11 11:36:16;;;;;;;2.42;0.65;;;15.70;99.10;;;;;;5031285;28;20101;-44
2023/12/11 11:38:59;;;;;;;1.88;0.63;;;15.70;99.00;;;;;;5030973;28;20034;-44
2023/12/11 11:41:29;;;;;;;1.40;0.60;;;15.80;99.00;;;;;;5031836;28;20101;-45
2023/12/11 11:44:00;;;;;;;1.27;0.68;;;15.80;99.00;;;;;;5036311;28;20468;-44
2023/12/11 11:46:46;;;;;;;1.27;0.60;;;15.80;98.90;;;;;;5036450;28;20033;-43
2023/12/11 11:49:32;;;;;;;0.88;0.60;;;15.90;98.80;;;;;;5035398;28;20049;-45
2023/12/11 11:51:58;;;;;;;1.13;0.50;;;16.00;98.80;;;;;;5036393;28;20033;-45
2023/12/11 11:54:25;;;;;;;0.95;0.50;;;15.90;98.70;;;;;;5035863;28;20159;-45
2023/12/11 11:56:52;;;;;;;0.82;0.55;;;16.00;98.60;;;;;;5035654;28;20026;-44
2023/12/11 11:59:19;;;;;;;1.23;0.63;;;16.10;98.60;;;;;;5034986;28;20022;-44
2023/12/11 12:02:02;;;;;;;0.80;0.60;;;16.10;98.60;;;;;;5035734;28;20028;-45
2023/12/11 12:04:30;;;;;;;1.10;0.60;;;16.10;98.50;;;;;;5036336;28;20025;-45
2023/12/11 12:06:58;;;;;;;2.35;0.60;;;16.20;98.50;;;;;;5035685;28;20510;-44
2023/12/11 12:09:24;;;;;;;0.77;0.50;;;16.20;98.40;;;;;;5035268;28;20577;-43
2023/12/11 12:11:50;;;;;;;0.95;0.60;;;16.30;98.40;;;;;;5034975;28;20056;-45
2023/12/11 12:14:16;;;;;;;1.27;0.47;;;16.30;98.30;;;;;;5035335;28;20049;-45
2023/12/11 12:16:42;;;;;;;1.30;0.60;;;16.20;98.40;;;;;;5036239;28;20391;-44
2023/12/11 12:19:07;;;;;;;1.90;0.65;;;16.30;98.40;;;;;;5035535;28;20026;-44
2023/12/11 12:21:54;;;;;;;1.05;0.55;;;16.30;98.50;;;;;;5034342;28;20060;-43
2023/12/11 12:24:20;;;;;;;1.10;0.50;;;16.30;98.50;;;;;;5034588;28;20399;-43
2023/12/11 12:26:49;;;;;;;1.10;0.65;;;16.30;98.50;;;;;;5036559;28;20044;-43
2023/12/11 12:29:15;;;;;;;1.10;0.40;;;16.30;98.40;;;;;;5035814;28;20113;-44
2023/12/11 12:31:41;;;;;;;1.25;0.50;;;16.40;98.40;;;;;;5035537;28;20037;-44
2023/12/11 12:34:07;;;;;;;1.05;0.47;;;16.40;98.20;;;;;;5035045;28;20037;-45
2023/12/11 12:36:34;;;;;;;1.40;0.70;;;16.60;98.10;;;;;;5035147;28;20096;-44
2023/12/11 12:39:00;;;;;;;0.73;0.40;;;16.60;97.90;;;;;;5034852;28;20533;-45
2023/12/11 12:41:28;;;;;;;1.05;0.57;;;16.70;97.80;;;;;;5034986;28;20096;-45
2023/12/11 12:44:01;;;;;;;0.73;0.40;;;16.70;97.70;;;;;;5034981;28;20037;-45
2023/12/11 12:46:36;;;;;;;1.05;0.63;;;16.80;97.70;;;;;;5033984;28;20475;-45